sensor_id;sensor_type;location;lat;lon;timestamp;temperature;humidity
20973;DHT22;10645;52.370;13.314;2023-06-22T00:02:00;16.90;99.90
20973;DHT22;10645;52.370;13.314;2023-06-22T00:04:27;16.80;99.90
20973;DHT22;10645;52.370;13.314;2023-06-22T00:06:53;16.80;99.90
20973;DHT22;10645;52.370;13.314;2023-06-22T00:09:19;16.70;99.90
20973;DHT22;10645;52.370;13.314;2023-06-22T00:11:45;16.70;99.90
20973;DHT22;10645;52.370;13.314;2023-06-22T00:14:11;16.60;99.90
20973;DHT22;10645;52.370;13.314;2023-06-22T00:16:37;16.60;99.90
20973;DHT22;10645;52.370;13.314;2023-06-22T00:19:03;16.60;99.90
20973;DHT22;10645;52.370;13.314;2023-06-22T00:21:30;16.60;99.90
20973;DHT22;10645;52.370;13.314;2023-06-22T00:23:56;16.60;99.90
20973;DHT22;10645;52.370;13.314;2023-06-22T00:26:23;16.50;99.90
20973;DHT22;10645;52.370;13.314;2023-06-22T00:28:49;16.50;99.90
20973;DHT22;10645;52.370;13.314;2023-06-22T00:31:15;16.50;99.90
20973;DHT22;10645;52.370;13.314;2023-06-22T00:33:41;16.50;99.90
20973;DHT22;10645;52.370;13.314;2023-06-22T00:36:07;16.50;99.90
20973;DHT22;10645;52.370;13.314;2023-06-22T00:38:34;16.50;99.90
20973;DHT22;10645;52.370;13.314;2023-06-22T00:41:01;16.50;99.90
20973;DHT22;10645;52.370;13.314;2023-06-22T00:43:27;16.50;99.90
20973;DHT22;10645;52.370;13.314;2023-06-22T00:45:55;16.60;99.90
20973;DHT22;10645;52.370;13.314;2023-06-22T00:48:22;16.60;99.90
20973;DHT22;10645;52.370;13.314;2023-06-22T00:50:48;16.60;99.90
20973;DHT22;10645;52.370;13.314;2023-06-22T00:53:17;16.60;99.90
20973;DHT22;10645;52.370;13.314;2023-06-22T00:55:44;16.60;99.90
20973;DHT22;10645;52.370;13.314;2023-06-22T00:58:13;16.60;99.90
20973;DHT22;10645;52.370;13.314;2023-06-22T01:00:41;16.70;99.90
20973;DHT22;10645;52.370;13.314;2023-06-22T01:03:07;16.70;99.90
20973;DHT22;10645;52.370;13.314;2023-06-22T01:05:37;16.80;99.90
20973;DHT22;10645;52.370;13.314;2023-06-22T01:08:22;16.80;99.90
20973;DHT22;10645;52.370;13.314;2023-06-22T01:11:48;16.80;99.90
20973;DHT22;10645;52.370;13.314;2023-06-22T01:14:08;16.80;99.90
20973;DHT22;10645;52.370;13.314;2023-06-22T01:16:40;16.80;99.90
20973;DHT22;10645;52.370;13.314;2023-06-22T01:19:46;16.70;99.90
20973;DHT22;10645;52.370;13.314;2023-06-22T01:22:16;16.80;99.90
20973;DHT22;10645;52.370;13.314;2023-06-22T01:27:53;16.80;99.90
20973;DHT22;10645;52.370;13.314;2023-06-22T01:30:24;16.80;99.90
20973;DHT22;10645;52.370;13.314;2023-06-22T01:32:53;16.70;99.90
20973;DHT22;10645;52.370;13.314;2023-06-22T01:35:20;16.70;99.90
20973;DHT22;10645;52.370;13.314;2023-06-22T01:37:47;16.70;99.90
20973;DHT22;10645;52.370;13.314;2023-06-22T01:40:14;16.70;99.90
20973;DHT22;10645;52.370;13.314;2023-06-22T01:42:41;16.80;99.90
20973;DHT22;10645;52.370;13.314;2023-06-22T01:45:10;16.80;99.90
20973;DHT22;10645;52.370;13.314;2023-06-22T01:47:38;16.90;99.90
20973;DHT22;10645;52.370;13.314;2023-06-22T01:50:05;16.90;99.90
20973;DHT22;10645;52.370;13.314;2023-06-22T01:52:32;17.00;99.90
20973;DHT22;10645;52.370;13.314;2023-06-22T01:55:00;17.00;99.90
20973;DHT22;10645;52.370;13.314;2023-06-22T01:57:27;17.00;99.90
20973;DHT22;10645;52.370;13.314;2023-06-22T02:00:03;17.00;99.90
20973;DHT22;10645;52.370;13.314;2023-06-22T02:05:18;17.00;99.90
20973;DHT22;10645;52.370;13.314;2023-06-22T02:07:52;17.00;99.90
20973;DHT22;10645;52.370;13.314;2023-06-22T02:10:20;17.00;99.90
20973;DHT22;10645;52.370;13.314;2023-06-22T02:12:50;17.00;99.90
20973;DHT22;10645;52.370;13.314;2023-06-22T02:15:17;17.00;99.90
20973;DHT22;10645;52.370;13.314;2023-06-22T02:17:47;17.00;99.90
20973;DHT22;10645;52.370;13.314;2023-06-22T02:20:14;17.00;99.90
20973;DHT22;10645;52.370;13.314;2023-06-22T02:22:41;17.00;99.90
20973;DHT22;10645;52.370;13.314;2023-06-22T02:25:10;17.10;99.90
20973;DHT22;10645;52.370;13.314;2023-06-22T02:27:37;17.10;99.90
20973;DHT22;10645;52.370;13.314;2023-06-22T02:30:09;17.10;99.90
20973;DHT22;10645;52.370;13.314;2023-06-22T02:32:37;17.10;99.90
20973;DHT22;10645;52.370;13.314;2023-06-22T02:35:08;17.10;99.90
20973;DHT22;10645;52.370;13.314;2023-06-22T02:37:36;17.10;99.90
20973;DHT22;10645;52.370;13.314;2023-06-22T02:40:06;17.20;99.90
20973;DHT22;10645;52.370;13.314;2023-06-22T02:42:37;17.20;99.90
20973;DHT22;10645;52.370;13.314;2023-06-22T02:45:03;17.30;99.90
20973;DHT22;10645;52.370;13.314;2023-06-22T02:47:30;17.40;99.90
20973;DHT22;10645;52.370;13.314;2023-06-22T02:49:57;17.40;99.90
20973;DHT22;10645;52.370;13.314;2023-06-22T02:52:23;17.40;99.90
20973;DHT22;10645;52.370;13.314;2023-06-22T02:54:49;17.50;99.90
20973;DHT22;10645;52.370;13.314;2023-06-22T02:57:16;17.50;99.90
20973;DHT22;10645;52.370;13.314;2023-06-22T02:59:43;17.40;99.90
20973;DHT22;10645;52.370;13.314;2023-06-22T03:02:11;17.50;99.90
20973;DHT22;10645;52.370;13.314;2023-06-22T03:04:37;17.40;99.90
20973;DHT22;10645;52.370;13.314;2023-06-22T03:07:04;17.50;99.90
20973;DHT22;10645;52.370;13.314;2023-06-22T03:09:31;17.50;99.90
20973;DHT22;10645;52.370;13.314;2023-06-22T03:11:58;17.60;99.90
20973;DHT22;10645;52.370;13.314;2023-06-22T03:14:29;17.50;99.90
20973;DHT22;10645;52.370;13.314;2023-06-22T03:16:55;17.60;99.90
20973;DHT22;10645;52.370;13.314;2023-06-22T03:19:27;17.60;99.90
20973;DHT22;10645;52.370;13.314;2023-06-22T03:21:55;17.70;99.90
20973;DHT22;10645;52.370;13.314;2023-06-22T03:24:21;17.70;99.90
20973;DHT22;10645;52.370;13.314;2023-06-22T03:26:47;17.90;99.90
20973;DHT22;10645;52.370;13.314;2023-06-22T03:29:14;17.90;99.90
20973;DHT22;10645;52.370;13.314;2023-06-22T03:31:42;18.10;99.90
20973;DHT22;10645;52.370;13.314;2023-06-22T03:34:08;18.10;99.90
20973;DHT22;10645;52.370;13.314;2023-06-22T03:36:34;18.10;99.90
20973;DHT22;10645;52.370;13.314;2023-06-22T03:39:01;18.20;99.90
20973;DHT22;10645;52.370;13.314;2023-06-22T03:41:28;18.20;99.90
20973;DHT22;10645;52.370;13.314;2023-06-22T03:43:54;18.10;99.90
20973;DHT22;10645;52.370;13.314;2023-06-22T03:46:20;18.10;99.90
20973;DHT22;10645;52.370;13.314;2023-06-22T03:48:46;18.10;99.90
20973;DHT22;10645;52.370;13.314;2023-06-22T03:51:12;18.10;99.90
20973;DHT22;10645;52.370;13.314;2023-06-22T03:53:38;18.10;99.90
20973;DHT22;10645;52.370;13.314;2023-06-22T03:56:05;18.20;99.90
20973;DHT22;10645;52.370;13.314;2023-06-22T03:58:31;18.20;99.90
20973;DHT22;10645;52.370;13.314;2023-06-22T04:00:58;18.20;99.90
20973;DHT22;10645;52.370;13.314;2023-06-22T04:03:25;18.20;99.90
20973;DHT22;10645;52.370;13.314;2023-06-22T04:05:51;18.20;99.90
20973;DHT22;10645;52.370;13.314;2023-06-22T04:08:18;18.20;99.90
20973;DHT22;10645;52.370;13.314;2023-06-22T04:10:44;18.20;99.90
20973;DHT22;10645;52.370;13.314;2023-06-22T04:13:10;18.20;99.90
20973;DHT22;10645;52.370;13.314;2023-06-22T04:15:36;18.30;99.90
20973;DHT22;10645;52.370;13.314;2023-06-22T04:18:02;18.40;99.90
20973;DHT22;10645;52.370;13.314;2023-06-22T04:20:29;18.40;99.90
20973;DHT22;10645;52.370;13.314;2023-06-22T04:22:55;18.50;99.90
20973;DHT22;10645;52.370;13.314;2023-06-22T04:25:21;18.60;99.90
20973;DHT22;10645;52.370;13.314;2023-06-22T04:27:47;18.60;99.90
20973;DHT22;10645;52.370;13.314;2023-06-22T04:30:14;18.60;99.90
20973;DHT22;10645;52.370;13.314;2023-06-22T04:32:44;18.70;99.90
20973;DHT22;10645;52.370;13.314;2023-06-22T04:35:11;18.80;99.90
20973;DHT22;10645;52.370;13.314;2023-06-22T04:37:37;19.00;99.90
20973;DHT22;10645;52.370;13.314;2023-06-22T04:40:05;19.10;99.90
20973;DHT22;10645;52.370;13.314;2023-06-22T04:42:34;19.20;99.90
20973;DHT22;10645;52.370;13.314;2023-06-22T04:45:00;19.30;99.90
20973;DHT22;10645;52.370;13.314;2023-06-22T04:47:26;19.40;99.90
20973;DHT22;10645;52.370;13.314;2023-06-22T04:49:52;19.40;99.90
20973;DHT22;10645;52.370;13.314;2023-06-22T04:52:18;19.50;99.90
20973;DHT22;10645;52.370;13.314;2023-06-22T04:54:46;19.60;99.90
20973;DHT22;10645;52.370;13.314;2023-06-22T04:57:21;19.70;99.90
20973;DHT22;10645;52.370;13.314;2023-06-22T04:59:56;19.90;99.90
20973;DHT22;10645;52.370;13.314;2023-06-22T05:02:22;20.10;99.90
20973;DHT22;10645;52.370;13.314;2023-06-22T05:04:53;20.20;99.90
20973;DHT22;10645;52.370;13.314;2023-06-22T05:07:22;20.30;99.90
20973;DHT22;10645;52.370;13.314;2023-06-22T05:09:51;20.30;99.90
20973;DHT22;10645;52.370;13.314;2023-06-22T05:12:17;20.30;99.90
20973;DHT22;10645;52.370;13.314;2023-06-22T05:14:43;20.50;99.90
20973;DHT22;10645;52.370;13.314;2023-06-22T05:17:09;20.60;99.90
20973;DHT22;10645;52.370;13.314;2023-06-22T05:19:41;20.80;99.90
20973;DHT22;10645;52.370;13.314;2023-06-22T05:22:11;20.90;99.90
20973;DHT22;10645;52.370;13.314;2023-06-22T05:24:38;21.10;99.90
20973;DHT22;10645;52.370;13.314;2023-06-22T05:27:04;21.20;99.90
20973;DHT22;10645;52.370;13.314;2023-06-22T05:29:30;21.10;99.90
20973;DHT22;10645;52.370;13.314;2023-06-22T05:31:56;21.00;99.90
20973;DHT22;10645;52.370;13.314;2023-06-22T05:34:22;20.90;99.90
20973;DHT22;10645;52.370;13.314;2023-06-22T05:36:48;20.90;99.90
20973;DHT22;10645;52.370;13.314;2023-06-22T05:39:15;20.80;99.90
20973;DHT22;10645;52.370;13.314;2023-06-22T05:41:41;20.80;99.90
20973;DHT22;10645;52.370;13.314;2023-06-22T05:44:09;20.80;99.90
20973;DHT22;10645;52.370;13.314;2023-06-22T05:46:35;20.90;99.90
20973;DHT22;10645;52.370;13.314;2023-06-22T05:49:01;21.00;99.90
20973;DHT22;10645;52.370;13.314;2023-06-22T05:51:27;21.00;99.90
20973;DHT22;10645;52.370;13.314;2023-06-22T05:53:53;21.10;99.90
20973;DHT22;10645;52.370;13.314;2023-06-22T05:56:19;21.10;99.90
20973;DHT22;10645;52.370;13.314;2023-06-22T05:58:46;21.30;99.90
20973;DHT22;10645;52.370;13.314;2023-06-22T06:01:12;21.40;99.90
20973;DHT22;10645;52.370;13.314;2023-06-22T06:03:38;21.50;99.90
20973;DHT22;10645;52.370;13.314;2023-06-22T06:06:07;21.70;99.90
20973;DHT22;10645;52.370;13.314;2023-06-22T06:08:33;21.90;99.90
20973;DHT22;10645;52.370;13.314;2023-06-22T06:10:59;22.10;99.90
20973;DHT22;10645;52.370;13.314;2023-06-22T06:13:25;22.20;99.90
20973;DHT22;10645;52.370;13.314;2023-06-22T06:15:51;22.40;99.90
20973;DHT22;10645;52.370;13.314;2023-06-22T06:18:21;22.60;99.90
20973;DHT22;10645;52.370;13.314;2023-06-22T06:20:47;22.90;99.90
20973;DHT22;10645;52.370;13.314;2023-06-22T06:23:13;23.00;99.90
20973;DHT22;10645;52.370;13.314;2023-06-22T06:25:39;23.00;99.90
20973;DHT22;10645;52.370;13.314;2023-06-22T06:28:05;23.10;99.90
20973;DHT22;10645;52.370;13.314;2023-06-22T06:30:31;23.00;99.90
20973;DHT22;10645;52.370;13.314;2023-06-22T06:32:57;23.00;99.90
20973;DHT22;10645;52.370;13.314;2023-06-22T06:35:23;23.10;99.90
20973;DHT22;10645;52.370;13.314;2023-06-22T06:37:50;23.20;99.90
20973;DHT22;10645;52.370;13.314;2023-06-22T06:40:17;23.20;99.90
20973;DHT22;10645;52.370;13.314;2023-06-22T06:42:46;23.20;99.90
20973;DHT22;10645;52.370;13.314;2023-06-22T06:45:17;23.20;99.90
20973;DHT22;10645;52.370;13.314;2023-06-22T06:47:43;23.30;99.90
20973;DHT22;10645;52.370;13.314;2023-06-22T06:50:10;23.30;99.90
20973;DHT22;10645;52.370;13.314;2023-06-22T06:52:36;23.30;99.90
20973;DHT22;10645;52.370;13.314;2023-06-22T06:55:02;23.40;99.90
20973;DHT22;10645;52.370;13.314;2023-06-22T06:57:30;23.60;99.90
20973;DHT22;10645;52.370;13.314;2023-06-22T06:59:56;23.90;99.90
20973;DHT22;10645;52.370;13.314;2023-06-22T07:02:23;24.00;99.90
20973;DHT22;10645;52.370;13.314;2023-06-22T07:04:49;24.10;99.90
20973;DHT22;10645;52.370;13.314;2023-06-22T07:07:16;24.30;99.90
20973;DHT22;10645;52.370;13.314;2023-06-22T07:09:42;24.40;99.90
20973;DHT22;10645;52.370;13.314;2023-06-22T07:12:08;24.40;99.90
20973;DHT22;10645;52.370;13.314;2023-06-22T07:14:34;24.30;99.90
20973;DHT22;10645;52.370;13.314;2023-06-22T07:17:00;24.40;99.90
20973;DHT22;10645;52.370;13.314;2023-06-22T07:19:27;24.60;99.90
20973;DHT22;10645;52.370;13.314;2023-06-22T07:21:56;24.60;99.90
20973;DHT22;10645;52.370;13.314;2023-06-22T07:24:22;24.60;99.90
20973;DHT22;10645;52.370;13.314;2023-06-22T07:26:49;24.60;99.90
20973;DHT22;10645;52.370;13.314;2023-06-22T07:29:17;24.80;99.90
20973;DHT22;10645;52.370;13.314;2023-06-22T07:31:44;24.90;99.90
20973;DHT22;10645;52.370;13.314;2023-06-22T07:34:11;25.00;99.90
20973;DHT22;10645;52.370;13.314;2023-06-22T07:36:37;24.90;99.90
20973;DHT22;10645;52.370;13.314;2023-06-22T07:39:03;24.90;99.90
20973;DHT22;10645;52.370;13.314;2023-06-22T07:41:30;24.90;99.90
20973;DHT22;10645;52.370;13.314;2023-06-22T07:43:56;24.90;99.90
20973;DHT22;10645;52.370;13.314;2023-06-22T07:46:23;24.90;99.90
20973;DHT22;10645;52.370;13.314;2023-06-22T07:48:49;25.00;99.90
20973;DHT22;10645;52.370;13.314;2023-06-22T07:51:15;25.10;99.90
20973;DHT22;10645;52.370;13.314;2023-06-22T07:53:42;25.10;99.90
20973;DHT22;10645;52.370;13.314;2023-06-22T07:56:12;25.10;99.90
20973;DHT22;10645;52.370;13.314;2023-06-22T07:58:38;25.20;99.90
20973;DHT22;10645;52.370;13.314;2023-06-22T08:01:04;25.30;99.90
20973;DHT22;10645;52.370;13.314;2023-06-22T08:03:30;25.40;99.90
20973;DHT22;10645;52.370;13.314;2023-06-22T08:05:56;25.40;99.90
20973;DHT22;10645;52.370;13.314;2023-06-22T08:08:22;25.60;99.90
20973;DHT22;10645;52.370;13.314;2023-06-22T08:10:48;25.50;99.90
20973;DHT22;10645;52.370;13.314;2023-06-22T08:13:15;25.70;99.90
20973;DHT22;10645;52.370;13.314;2023-06-22T08:15:41;25.70;99.90
20973;DHT22;10645;52.370;13.314;2023-06-22T08:18:07;25.90;99.90
20973;DHT22;10645;52.370;13.314;2023-06-22T08:20:33;25.80;99.90
20973;DHT22;10645;52.370;13.314;2023-06-22T08:22:59;25.90;99.90
20973;DHT22;10645;52.370;13.314;2023-06-22T08:25:34;26.00;99.90
20973;DHT22;10645;52.370;13.314;2023-06-22T08:28:02;26.00;99.90
20973;DHT22;10645;52.370;13.314;2023-06-22T08:30:28;26.00;99.90
20973;DHT22;10645;52.370;13.314;2023-06-22T08:32:54;26.10;99.90
20973;DHT22;10645;52.370;13.314;2023-06-22T08:35:24;26.20;99.90
20973;DHT22;10645;52.370;13.314;2023-06-22T08:37:51;26.20;99.90
20973;DHT22;10645;52.370;13.314;2023-06-22T08:40:22;26.00;99.90
20973;DHT22;10645;52.370;13.314;2023-06-22T08:42:49;26.10;99.90
20973;DHT22;10645;52.370;13.314;2023-06-22T08:45:15;26.10;99.90
20973;DHT22;10645;52.370;13.314;2023-06-22T08:47:42;26.20;99.90
20973;DHT22;10645;52.370;13.314;2023-06-22T08:50:09;26.10;99.90
20973;DHT22;10645;52.370;13.314;2023-06-22T08:52:37;26.20;99.90
20973;DHT22;10645;52.370;13.314;2023-06-22T08:55:03;26.30;99.90
20973;DHT22;10645;52.370;13.314;2023-06-22T08:57:29;26.40;99.90
20973;DHT22;10645;52.370;13.314;2023-06-22T08:59:56;26.50;99.90
20973;DHT22;10645;52.370;13.314;2023-06-22T09:02:26;26.40;99.90
20973;DHT22;10645;52.370;13.314;2023-06-22T09:04:57;26.40;99.90
20973;DHT22;10645;52.370;13.314;2023-06-22T09:07:24;26.50;99.90
20973;DHT22;10645;52.370;13.314;2023-06-22T09:09:51;26.50;99.90
20973;DHT22;10645;52.370;13.314;2023-06-22T09:12:18;26.50;99.90
20973;DHT22;10645;52.370;13.314;2023-06-22T09:14:46;26.60;99.90
20973;DHT22;10645;52.370;13.314;2023-06-22T09:17:13;26.70;99.90
20973;DHT22;10645;52.370;13.314;2023-06-22T09:19:39;26.80;99.90
20973;DHT22;10645;52.370;13.314;2023-06-22T09:22:05;26.70;99.90
20973;DHT22;10645;52.370;13.314;2023-06-22T09:24:34;26.70;99.90
20973;DHT22;10645;52.370;13.314;2023-06-22T09:27:00;26.80;99.40
20973;DHT22;10645;52.370;13.314;2023-06-22T09:29:26;26.80;99.90
20973;DHT22;10645;52.370;13.314;2023-06-22T09:31:52;26.90;99.90
20973;DHT22;10645;52.370;13.314;2023-06-22T09:34:21;27.00;99.90
20973;DHT22;10645;52.370;13.314;2023-06-22T09:36:47;27.00;99.90
20973;DHT22;10645;52.370;13.314;2023-06-22T09:39:14;27.10;99.90
20973;DHT22;10645;52.370;13.314;2023-06-22T09:41:40;27.20;99.90
20973;DHT22;10645;52.370;13.314;2023-06-22T09:44:06;27.30;99.90
20973;DHT22;10645;52.370;13.314;2023-06-22T09:46:32;27.50;99.30
20973;DHT22;10645;52.370;13.314;2023-06-22T09:48:58;27.20;98.20
20973;DHT22;10645;52.370;13.314;2023-06-22T09:51:24;27.10;98.40
20973;DHT22;10645;52.370;13.314;2023-06-22T09:53:51;27.00;99.40
20973;DHT22;10645;52.370;13.314;2023-06-22T09:56:19;27.00;99.00
20973;DHT22;10645;52.370;13.314;2023-06-22T09:58:46;27.10;98.90
20973;DHT22;10645;52.370;13.314;2023-06-22T10:01:13;27.10;98.90
20973;DHT22;10645;52.370;13.314;2023-06-22T10:03:42;27.00;99.90
20973;DHT22;10645;52.370;13.314;2023-06-22T10:06:08;27.00;99.90
20973;DHT22;10645;52.370;13.314;2023-06-22T10:08:35;27.10;99.90
20973;DHT22;10645;52.370;13.314;2023-06-22T10:11:02;27.20;99.90
20973;DHT22;10645;52.370;13.314;2023-06-22T10:13:29;27.40;98.50
20973;DHT22;10645;52.370;13.314;2023-06-22T10:15:55;27.30;99.90
20973;DHT22;10645;52.370;13.314;2023-06-22T10:18:21;27.30;99.90
20973;DHT22;10645;52.370;13.314;2023-06-22T10:20:49;27.50;99.60
20973;DHT22;10645;52.370;13.314;2023-06-22T10:23:17;27.60;99.90
20973;DHT22;10645;52.370;13.314;2023-06-22T10:25:44;27.60;98.90
20973;DHT22;10645;52.370;13.314;2023-06-22T10:28:10;27.40;98.40
20973;DHT22;10645;52.370;13.314;2023-06-22T10:30:36;27.30;99.20
20973;DHT22;10645;52.370;13.314;2023-06-22T10:33:02;27.20;99.70
20973;DHT22;10645;52.370;13.314;2023-06-22T10:35:28;27.10;99.30
20973;DHT22;10645;52.370;13.314;2023-06-22T10:37:55;27.10;98.50
20973;DHT22;10645;52.370;13.314;2023-06-22T10:40:22;27.00;99.60
20973;DHT22;10645;52.370;13.314;2023-06-22T10:42:48;27.20;99.40
20973;DHT22;10645;52.370;13.314;2023-06-22T10:45:16;27.60;98.40
20973;DHT22;10645;52.370;13.314;2023-06-22T10:47:42;27.90;98.60
20973;DHT22;10645;52.370;13.314;2023-06-22T10:50:08;28.10;98.20
20973;DHT22;10645;52.370;13.314;2023-06-22T10:52:34;28.30;97.80
20973;DHT22;10645;52.370;13.314;2023-06-22T10:55:00;28.50;96.90
20973;DHT22;10645;52.370;13.314;2023-06-22T10:57:26;28.70;97.50
20973;DHT22;10645;52.370;13.314;2023-06-22T10:59:52;28.60;95.80
20973;DHT22;10645;52.370;13.314;2023-06-22T11:02:18;28.60;96.00
20973;DHT22;10645;52.370;13.314;2023-06-22T11:04:44;28.90;96.10
20973;DHT22;10645;52.370;13.314;2023-06-22T11:07:11;29.10;95.80
20973;DHT22;10645;52.370;13.314;2023-06-22T11:09:37;29.30;96.50
20973;DHT22;10645;52.370;13.314;2023-06-22T11:12:05;29.20;96.00
20973;DHT22;10645;52.370;13.314;2023-06-22T11:14:32;29.30;95.90
20973;DHT22;10645;52.370;13.314;2023-06-22T11:16:59;29.40;96.40
20973;DHT22;10645;52.370;13.314;2023-06-22T11:19:25;29.40;95.00
20973;DHT22;10645;52.370;13.314;2023-06-22T11:21:51;29.40;96.10
20973;DHT22;10645;52.370;13.314;2023-06-22T11:24:17;29.60;94.80
20973;DHT22;10645;52.370;13.314;2023-06-22T11:26:44;29.70;94.10
20973;DHT22;10645;52.370;13.314;2023-06-22T11:29:10;29.60;95.80
20973;DHT22;10645;52.370;13.314;2023-06-22T11:31:36;29.70;95.50
20973;DHT22;10645;52.370;13.314;2023-06-22T11:34:02;29.90;94.60
20973;DHT22;10645;52.370;13.314;2023-06-22T11:36:29;30.10;95.10
20973;DHT22;10645;52.370;13.314;2023-06-22T11:38:58;30.10;93.90
20973;DHT22;10645;52.370;13.314;2023-06-22T11:41:24;30.20;93.80
20973;DHT22;10645;52.370;13.314;2023-06-22T11:43:50;30.30;94.20
20973;DHT22;10645;52.370;13.314;2023-06-22T11:46:17;30.30;92.50
20973;DHT22;10645;52.370;13.314;2023-06-22T11:48:43;30.40;94.60
20973;DHT22;10645;52.370;13.314;2023-06-22T11:51:09;30.60;92.30
20973;DHT22;10645;52.370;13.314;2023-06-22T11:53:35;30.60;94.40
20973;DHT22;10645;52.370;13.314;2023-06-22T11:56:01;30.70;91.90
20973;DHT22;10645;52.370;13.314;2023-06-22T11:58:28;30.70;91.20
20973;DHT22;10645;52.370;13.314;2023-06-22T12:00:54;30.40;92.20
20973;DHT22;10645;52.370;13.314;2023-06-22T12:03:20;30.30;93.90
20973;DHT22;10645;52.370;13.314;2023-06-22T12:05:50;30.30;91.50
20973;DHT22;10645;52.370;13.314;2023-06-22T12:08:18;29.90;92.00
20973;DHT22;10645;52.370;13.314;2023-06-22T12:10:44;29.80;94.20
20973;DHT22;10645;52.370;13.314;2023-06-22T12:13:10;29.80;91.90
20973;DHT22;10645;52.370;13.314;2023-06-22T12:15:36;29.70;92.40
20973;DHT22;10645;52.370;13.314;2023-06-22T12:18:02;29.80;90.90
20973;DHT22;10645;52.370;13.314;2023-06-22T12:20:29;30.00;92.80
20973;DHT22;10645;52.370;13.314;2023-06-22T12:22:55;30.10;92.40
20973;DHT22;10645;52.370;13.314;2023-06-22T12:25:24;30.40;91.80
20973;DHT22;10645;52.370;13.314;2023-06-22T12:27:50;30.30;91.90
20973;DHT22;10645;52.370;13.314;2023-06-22T12:30:16;30.30;93.90
20973;DHT22;10645;52.370;13.314;2023-06-22T12:32:43;30.40;91.60
20973;DHT22;10645;52.370;13.314;2023-06-22T12:35:09;30.30;90.90
20973;DHT22;10645;52.370;13.314;2023-06-22T12:37:43;30.40;92.40
20973;DHT22;10645;52.370;13.314;2023-06-22T12:40:10;30.40;90.40
20973;DHT22;10645;52.370;13.314;2023-06-22T12:42:36;30.50;90.20
20973;DHT22;10645;52.370;13.314;2023-06-22T12:45:03;30.50;90.30
20973;DHT22;10645;52.370;13.314;2023-06-22T12:47:29;30.60;91.50
20973;DHT22;10645;52.370;13.314;2023-06-22T12:49:55;30.80;91.40
20973;DHT22;10645;52.370;13.314;2023-06-22T12:52:21;31.10;88.30
20973;DHT22;10645;52.370;13.314;2023-06-22T12:54:47;31.20;90.80
20973;DHT22;10645;52.370;13.314;2023-06-22T12:57:14;31.20;89.20
20973;DHT22;10645;52.370;13.314;2023-06-22T12:59:40;31.30;88.00
20973;DHT22;10645;52.370;13.314;2023-06-22T13:02:06;31.10;90.10
20973;DHT22;10645;52.370;13.314;2023-06-22T13:04:32;31.00;89.90
20973;DHT22;10645;52.370;13.314;2023-06-22T13:06:58;31.10;87.90
20973;DHT22;10645;52.370;13.314;2023-06-22T13:09:24;31.00;87.50
20973;DHT22;10645;52.370;13.314;2023-06-22T13:11:50;30.80;88.90
20973;DHT22;10645;52.370;13.314;2023-06-22T13:14:18;30.70;88.60
20973;DHT22;10645;52.370;13.314;2023-06-22T13:16:44;30.80;87.90
20973;DHT22;10645;52.370;13.314;2023-06-22T13:19:10;30.80;86.50
20973;DHT22;10645;52.370;13.314;2023-06-22T13:21:36;30.80;88.40
20973;DHT22;10645;52.370;13.314;2023-06-22T13:24:02;30.80;90.80
20973;DHT22;10645;52.370;13.314;2023-06-22T13:26:29;30.90;89.50
20973;DHT22;10645;52.370;13.314;2023-06-22T13:28:55;30.70;89.50
20973;DHT22;10645;52.370;13.314;2023-06-22T13:31:21;30.90;90.40
20973;DHT22;10645;52.370;13.314;2023-06-22T13:33:48;31.00;91.40
20973;DHT22;10645;52.370;13.314;2023-06-22T13:36:14;31.20;88.20
20973;DHT22;10645;52.370;13.314;2023-06-22T13:38:41;31.30;88.80
20973;DHT22;10645;52.370;13.314;2023-06-22T13:41:07;31.00;86.80
20973;DHT22;10645;52.370;13.314;2023-06-22T13:43:33;30.80;88.80
20973;DHT22;10645;52.370;13.314;2023-06-22T13:45:59;30.80;90.60
20973;DHT22;10645;52.370;13.314;2023-06-22T13:48:25;30.80;90.40
20973;DHT22;10645;52.370;13.314;2023-06-22T13:50:52;30.80;89.50
20973;DHT22;10645;52.370;13.314;2023-06-22T13:53:18;30.40;88.70
20973;DHT22;10645;52.370;13.314;2023-06-22T13:55:44;30.50;89.20
20973;DHT22;10645;52.370;13.314;2023-06-22T13:58:10;30.60;90.70
20973;DHT22;10645;52.370;13.314;2023-06-22T14:00:36;30.90;90.50
20973;DHT22;10645;52.370;13.314;2023-06-22T14:03:03;30.90;90.50
20973;DHT22;10645;52.370;13.314;2023-06-22T14:05:29;30.80;88.90
20973;DHT22;10645;52.370;13.314;2023-06-22T14:07:55;30.70;86.80
20973;DHT22;10645;52.370;13.314;2023-06-22T14:10:21;30.60;88.30
20973;DHT22;10645;52.370;13.314;2023-06-22T14:12:47;30.30;87.30
20973;DHT22;10645;52.370;13.314;2023-06-22T14:15:13;30.20;90.30
20973;DHT22;10645;52.370;13.314;2023-06-22T14:17:39;30.20;91.60
20973;DHT22;10645;52.370;13.314;2023-06-22T14:20:05;30.40;90.70
20973;DHT22;10645;52.370;13.314;2023-06-22T14:22:34;30.60;88.20
20973;DHT22;10645;52.370;13.314;2023-06-22T14:25:01;30.70;90.70
20973;DHT22;10645;52.370;13.314;2023-06-22T14:27:27;30.80;90.00
20973;DHT22;10645;52.370;13.314;2023-06-22T14:29:53;30.80;88.90
20973;DHT22;10645;52.370;13.314;2023-06-22T14:32:19;30.60;87.30
20973;DHT22;10645;52.370;13.314;2023-06-22T14:34:45;30.60;90.10
20973;DHT22;10645;52.370;13.314;2023-06-22T14:37:12;30.70;89.30
20973;DHT22;10645;52.370;13.314;2023-06-22T14:39:41;30.70;87.90
20973;DHT22;10645;52.370;13.314;2023-06-22T14:42:08;30.70;89.40
20973;DHT22;10645;52.370;13.314;2023-06-22T14:44:34;31.00;88.70
20973;DHT22;10645;52.370;13.314;2023-06-22T14:47:01;31.00;87.80
20973;DHT22;10645;52.370;13.314;2023-06-22T14:49:27;30.80;89.50
20973;DHT22;10645;52.370;13.314;2023-06-22T14:51:53;30.90;87.40
20973;DHT22;10645;52.370;13.314;2023-06-22T14:54:19;30.80;90.40
20973;DHT22;10645;52.370;13.314;2023-06-22T14:56:45;30.90;87.90
20973;DHT22;10645;52.370;13.314;2023-06-22T14:59:12;31.00;88.30
20973;DHT22;10645;52.370;13.314;2023-06-22T15:01:38;31.20;86.20
20973;DHT22;10645;52.370;13.314;2023-06-22T15:04:04;31.20;90.30
20973;DHT22;10645;52.370;13.314;2023-06-22T15:06:30;31.50;87.30
20973;DHT22;10645;52.370;13.314;2023-06-22T15:08:56;31.30;87.00
20973;DHT22;10645;52.370;13.314;2023-06-22T15:11:22;31.40;87.00
20973;DHT22;10645;52.370;13.314;2023-06-22T15:13:48;31.30;84.70
20973;DHT22;10645;52.370;13.314;2023-06-22T15:16:14;31.00;88.80
20973;DHT22;10645;52.370;13.314;2023-06-22T15:18:41;30.90;86.50
20973;DHT22;10645;52.370;13.314;2023-06-22T15:21:07;31.10;88.90